Kampsville, Illinois
Current Conditions -  °F | °C
As of 3:15 AM on Thursday 27 Nov 2014 (Local Time) from KPPQ Reporting Station
Overcast Overcast  
Wind Chill: 20°   Ceiling: 1600
Heat Index: 27°   Visibility: 5mi
Dew Point: 24°   Wind: 7mph
Humidity: 89%   Direction: 310°NW
Pressure: 30.37"   Gusts: NA
Location:  39.3°N, 90.61°W
Report Text: KPPQ 270915Z AUTO 31006KT 5SM OVC016 M03/M04 A3037 RMK AO2 T10271043 PWINO
Loading
Personal Weather Stations






























Interactive Weather Map New forecast layout! Learn more

10-Day Weather Forecast

Advertisements
Track Severe Weather on mobile